createdAt,value
2022-11-25T00:01:38.644Z,3.38
2022-11-25T00:04:05.202Z,3.30
2022-11-25T00:06:33.849Z,3.37
2022-11-25T00:09:03.656Z,3.40
2022-11-25T00:11:30.955Z,3.37
2022-11-25T00:13:58.248Z,3.35
2022-11-25T00:16:26.490Z,3.40
2022-11-25T00:18:54.923Z,3.39
2022-11-25T00:21:24.578Z,3.40
2022-11-25T00:24:02.575Z,3.40
2022-11-25T00:26:32.621Z,3.29
2022-11-25T00:29:01.423Z,3.44
2022-11-25T00:31:35.216Z,3.40
2022-11-25T00:34:02.552Z,3.39
2022-11-25T00:36:32.173Z,3.45
2022-11-25T00:39:04.483Z,3.45
2022-11-25T00:41:49.741Z,3.36
2022-11-25T00:44:37.548Z,3.34
2022-11-25T00:47:09.499Z,3.28
2022-11-25T00:49:37.336Z,3.30
2022-11-25T00:52:04.918Z,3.35
2022-11-25T00:54:31.702Z,3.28
2022-11-25T00:56:59.000Z,3.36
2022-11-25T00:59:25.923Z,3.36
2022-11-25T01:01:52.785Z,3.29
2022-11-25T01:04:19.372Z,3.35
2022-11-25T01:06:45.953Z,3.32
2022-11-25T01:09:15.204Z,3.33
2022-11-25T01:11:42.086Z,3.28
2022-11-25T01:14:09.363Z,3.25
2022-11-25T01:16:36.794Z,3.26
2022-11-25T01:19:04.140Z,3.16
2022-11-25T01:21:32.964Z,3.23
2022-11-25T01:24:01.521Z,3.22
2022-11-25T01:26:29.826Z,3.23
2022-11-25T01:28:59.051Z,3.17
2022-11-25T01:31:28.929Z,3.02
2022-11-25T01:34:07.873Z,2.96
2022-11-25T01:36:35.400Z,2.98
2022-11-25T01:39:03.132Z,2.91
2022-11-25T01:41:31.433Z,2.89
2022-11-25T01:44:23.105Z,2.94
2022-11-25T01:47:03.443Z,2.93
2022-11-25T01:49:42.183Z,2.95
2022-11-25T01:52:17.672Z,2.92
2022-11-25T01:54:52.336Z,2.81
2022-11-25T01:57:25.989Z,2.82
2022-11-25T01:59:57.663Z,2.87
2022-11-25T02:02:24.792Z,2.83
2022-11-25T02:04:51.510Z,2.79
2022-11-25T02:07:40.282Z,2.76
2022-11-25T02:10:13.848Z,2.66
2022-11-25T02:12:45.221Z,2.68
2022-11-25T02:15:13.042Z,2.61
2022-11-25T02:17:39.827Z,2.71
2022-11-25T02:20:19.294Z,2.70
2022-11-25T02:23:04.826Z,2.70
2022-11-25T02:25:34.752Z,2.73
2022-11-25T02:28:12.280Z,2.69
2022-11-25T02:30:39.750Z,2.71
2022-11-25T02:33:07.026Z,2.70
2022-11-25T02:35:39.633Z,2.69
2022-11-25T02:38:21.231Z,2.66
2022-11-25T02:41:00.510Z,2.55
2022-11-25T02:43:27.795Z,2.61
2022-11-25T02:46:04.003Z,2.56
2022-11-25T02:49:07.483Z,2.58
2022-11-25T02:51:22.806Z,2.58
2022-11-25T02:53:50.233Z,2.55
2022-11-25T02:56:22.226Z,2.60
2022-11-25T02:58:48.834Z,2.55
2022-11-25T03:01:15.506Z,2.56
2022-11-25T03:03:42.298Z,2.59
2022-11-25T03:06:09.094Z,2.59
2022-11-25T03:08:36.416Z,2.59
2022-11-25T03:11:06.891Z,2.59
2022-11-25T03:13:33.957Z,2.63
2022-11-25T03:16:00.768Z,2.65
2022-11-25T03:18:28.915Z,2.70
2022-11-25T03:20:56.296Z,2.70
2022-11-25T03:23:25.100Z,2.70
2022-11-25T03:25:53.784Z,2.70
2022-11-25T03:28:20.528Z,2.65
2022-11-25T03:30:47.508Z,2.57
2022-11-25T03:33:14.057Z,2.61
2022-11-25T03:35:40.622Z,2.63
2022-11-25T03:38:07.462Z,2.55
2022-11-25T03:40:36.434Z,2.62
2022-11-25T03:43:03.436Z,2.61
2022-11-25T03:45:30.048Z,2.55
2022-11-25T03:47:59.549Z,2.63
2022-11-25T03:50:26.565Z,2.61
2022-11-25T03:52:54.255Z,2.63
2022-11-25T03:55:20.867Z,2.61
2022-11-25T03:57:49.171Z,2.60
2022-11-25T04:00:16.075Z,2.65
2022-11-25T04:02:49.948Z,2.59
2022-11-25T04:05:17.465Z,2.66
2022-11-25T04:07:44.018Z,2.67
2022-11-25T04:10:12.147Z,2.64
2022-11-25T04:12:47.751Z,2.58
2022-11-25T04:15:21.564Z,2.58
2022-11-25T04:17:52.638Z,2.64
2022-11-25T04:20:19.700Z,2.54
2022-11-25T04:22:52.636Z,2.58
2022-11-25T04:25:20.401Z,2.70
2022-11-25T04:27:47.289Z,2.71
2022-11-25T04:30:16.093Z,2.65
2022-11-25T04:32:44.141Z,2.68
2022-11-25T04:35:12.965Z,2.75
2022-11-25T04:37:44.467Z,2.72
2022-11-25T04:40:11.647Z,2.75
2022-11-25T04:42:39.774Z,2.73
2022-11-25T04:45:23.873Z,2.77
2022-11-25T04:47:52.755Z,2.78
2022-11-25T04:50:22.835Z,2.79
2022-11-25T04:53:04.396Z,2.80
2022-11-25T04:55:31.678Z,2.72
2022-11-25T04:58:01.076Z,2.78
2022-11-25T05:00:29.130Z,2.78
2022-11-25T05:02:56.669Z,2.80
2022-11-25T05:05:24.167Z,2.80
2022-11-25T05:07:50.966Z,2.77
2022-11-25T05:10:20.041Z,2.67
2022-11-25T05:12:48.493Z,2.72
2022-11-25T05:15:18.084Z,2.62
2022-11-25T05:17:46.744Z,2.76
2022-11-25T05:20:14.796Z,2.78
2022-11-25T05:22:41.712Z,2.78
2022-11-25T05:25:13.651Z,2.78
2022-11-25T05:27:50.575Z,2.65
2022-11-25T05:30:17.187Z,2.71
2022-11-25T05:32:44.703Z,2.74
2022-11-25T05:35:11.256Z,2.72
2022-11-25T05:37:39.754Z,2.75
2022-11-25T05:40:07.605Z,2.75
2022-11-25T05:42:49.393Z,2.81
2022-11-25T05:45:17.469Z,2.71
2022-11-25T05:47:44.493Z,2.87
2022-11-25T05:50:13.789Z,2.87
2022-11-25T05:52:40.735Z,2.86
2022-11-25T05:55:08.626Z,2.86
2022-11-25T05:57:35.216Z,2.84
2022-11-25T06:00:08.701Z,2.81
2022-11-25T06:02:41.401Z,2.80
2022-11-25T06:05:09.706Z,2.81
2022-11-25T06:07:36.341Z,2.73
2022-11-25T06:10:03.633Z,2.77
2022-11-25T06:12:33.465Z,2.81
2022-11-25T06:14:59.982Z,2.77
2022-11-25T06:17:27.098Z,2.84
2022-11-25T06:20:22.918Z,2.85
2022-11-25T06:22:50.827Z,2.79
2022-11-25T06:25:22.751Z,2.81
2022-11-25T06:28:11.788Z,2.88
2022-11-25T06:30:37.812Z,2.83
2022-11-25T06:33:14.113Z,2.89
2022-11-25T06:35:43.867Z,2.88
2022-11-25T06:38:10.446Z,2.87
2022-11-25T06:40:36.965Z,2.84
2022-11-25T06:43:04.433Z,2.90
2022-11-25T06:45:32.292Z,2.88
2022-11-25T06:47:58.809Z,2.87
2022-11-25T06:50:25.374Z,2.90
2022-11-25T06:52:51.901Z,2.90
2022-11-25T06:55:18.462Z,2.89
2022-11-25T06:57:45.036Z,2.88
2022-11-25T07:00:12.046Z,2.91
2022-11-25T07:02:44.023Z,2.80
2022-11-25T07:05:11.954Z,2.78
2022-11-25T07:07:38.526Z,2.91
2022-11-25T07:10:05.836Z,2.95
2022-11-25T07:12:32.374Z,2.97
2022-11-25T07:14:58.901Z,2.92
2022-11-25T07:17:25.417Z,2.99
2022-11-25T07:19:51.973Z,2.98
2022-11-25T07:22:18.506Z,3.03
2022-11-25T07:24:45.022Z,3.12
2022-11-25T07:27:11.577Z,3.15
2022-11-25T07:30:10.776Z,3.02
2022-11-25T07:32:24.707Z,3.14
2022-11-25T07:34:51.628Z,3.23
2022-11-25T07:37:18.259Z,3.28
2022-11-25T07:39:44.887Z,3.31
2022-11-25T07:42:11.427Z,3.30
2022-11-25T07:44:37.935Z,3.33
2022-11-25T07:47:33.357Z,3.35
2022-11-25T07:49:59.935Z,3.44
2022-11-25T07:52:26.609Z,3.47
2022-11-25T07:54:53.561Z,3.47
2022-11-25T07:57:20.100Z,3.49
2022-11-25T07:59:46.663Z,3.56
2022-11-25T08:02:13.342Z,3.50
2022-11-25T08:04:39.917Z,3.61
2022-11-25T08:07:06.695Z,3.66
2022-11-25T08:09:33.280Z,3.68
2022-11-25T08:11:59.947Z,3.75
2022-11-25T08:14:26.521Z,3.72
2022-11-25T08:16:53.135Z,3.83
2022-11-25T08:19:19.704Z,3.78
2022-11-25T08:21:48.117Z,3.80
2022-11-25T08:24:18.049Z,3.89
2022-11-25T08:26:44.658Z,3.91
2022-11-25T08:29:15.304Z,3.98
2022-11-25T08:31:43.065Z,4.02
2022-11-25T08:34:17.009Z,4.01
2022-11-25T08:36:48.166Z,4.00
2022-11-25T08:39:50.360Z,4.15
2022-11-25T08:42:04.502Z,4.18
2022-11-25T08:44:31.017Z,4.15
2022-11-25T08:46:57.777Z,4.22
2022-11-25T08:49:26.759Z,4.24
2022-11-25T08:51:53.395Z,4.18
2022-11-25T08:54:19.975Z,4.27
2022-11-25T08:56:46.559Z,4.34
2022-11-25T08:59:13.414Z,4.36
2022-11-25T09:01:40.051Z,4.41
2022-11-25T09:04:06.696Z,4.37
2022-11-25T09:06:33.271Z,4.45
2022-11-25T09:09:01.773Z,4.44
2022-11-25T09:11:28.780Z,4.57
2022-11-25T09:13:55.726Z,4.59
2022-11-25T09:16:22.903Z,4.62
2022-11-25T09:18:55.422Z,4.63
2022-11-25T09:21:24.859Z,4.68
2022-11-25T09:23:54.000Z,4.76
2022-11-25T09:26:29.774Z,4.81
2022-11-25T09:28:56.715Z,4.81
2022-11-25T09:31:23.916Z,4.89
2022-11-25T09:33:50.614Z,4.94
2022-11-25T09:36:18.713Z,4.88
2022-11-25T09:38:45.818Z,5.01
2022-11-25T09:41:51.927Z,5.02
2022-11-25T09:44:39.945Z,5.11
2022-11-25T09:47:23.540Z,5.16
2022-11-25T09:50:02.163Z,5.20
2022-11-25T09:52:48.079Z,5.18
2022-11-25T09:55:25.885Z,5.20
2022-11-25T09:58:32.690Z,5.33
2022-11-25T10:01:00.405Z,5.38
2022-11-25T10:03:43.504Z,5.43
2022-11-25T10:06:19.001Z,5.49
2022-11-25T10:08:51.606Z,5.53
2022-11-25T10:11:45.523Z,5.59
2022-11-25T10:14:18.129Z,5.64
2022-11-25T10:16:52.034Z,5.62
2022-11-25T10:19:49.582Z,5.77
2022-11-25T10:22:26.245Z,5.81
2022-11-25T10:25:02.200Z,5.88
2022-11-25T10:27:41.764Z,5.95
2022-11-25T10:30:21.591Z,6.01
2022-11-25T10:33:10.005Z,6.07
2022-11-25T10:35:41.484Z,6.13
2022-11-25T10:38:19.168Z,6.19
2022-11-25T10:40:49.695Z,6.19
2022-11-25T10:43:16.318Z,6.35
2022-11-25T10:46:06.132Z,6.43
2022-11-25T10:48:45.309Z,6.48
2022-11-25T10:51:31.303Z,6.51
2022-11-25T10:54:27.196Z,6.58
2022-11-25T10:56:57.496Z,6.66
2022-11-25T10:59:39.310Z,6.72
2022-11-25T11:02:24.503Z,6.77
2022-11-25T11:05:08.172Z,6.85
2022-11-25T11:07:44.038Z,6.94
2022-11-25T11:10:13.683Z,6.99
2022-11-25T11:13:01.395Z,7.10
2022-11-25T11:15:31.399Z,7.18
2022-11-25T11:18:00.997Z,7.29
2022-11-25T11:20:32.065Z,7.35
2022-11-25T11:23:09.626Z,7.31
2022-11-25T11:25:39.841Z,7.41
2022-11-25T11:28:26.867Z,7.50
2022-11-25T11:31:01.255Z,7.45
2022-11-25T11:33:45.327Z,7.59
2022-11-25T11:36:27.305Z,7.61
2022-11-25T11:38:56.157Z,7.68
2022-11-25T11:41:39.459Z,7.77
2022-11-25T11:44:28.008Z,7.86
2022-11-25T11:47:26.988Z,7.88
2022-11-25T11:50:08.797Z,7.97
2022-11-25T11:52:42.696Z,7.98
2022-11-25T11:55:24.882Z,8.07
2022-11-25T11:58:11.381Z,8.11
2022-11-25T12:01:02.112Z,8.14
2022-11-25T12:03:34.570Z,8.22
2022-11-25T12:06:06.220Z,8.26
2022-11-25T12:08:45.122Z,8.35
2022-11-25T12:11:17.725Z,8.39
2022-11-25T12:14:01.144Z,8.41
2022-11-25T12:16:34.517Z,8.44
2022-11-25T12:19:16.502Z,8.49
2022-11-25T12:21:45.869Z,8.45
2022-11-25T12:24:37.224Z,8.59
2022-11-25T12:27:11.018Z,8.62
2022-11-25T12:30:19.417Z,8.67
2022-11-25T12:32:49.201Z,8.72
2022-11-25T12:35:36.718Z,8.80
2022-11-25T12:38:12.455Z,8.83
2022-11-25T12:41:01.498Z,8.85
2022-11-25T12:43:45.688Z,8.90
2022-11-25T12:46:20.275Z,8.94
2022-11-25T12:48:47.133Z,8.97
2022-11-25T12:51:24.448Z,9.03
2022-11-25T12:54:20.722Z,9.08
2022-11-25T12:57:00.948Z,9.09
2022-11-25T13:00:25.090Z,9.19
2022-11-25T13:03:14.077Z,9.27
2022-11-25T13:06:16.287Z,9.33
2022-11-25T13:09:01.426Z,9.41
2022-11-25T13:11:46.651Z,9.42
2022-11-25T13:14:54.510Z,9.54
2022-11-25T13:17:23.986Z,9.57
2022-11-25T13:20:28.872Z,9.62
2022-11-25T13:23:10.810Z,9.69
2022-11-25T13:25:40.146Z,9.71
2022-11-25T13:28:29.232Z,9.75
2022-11-25T13:31:16.279Z,9.78
2022-11-25T13:33:42.774Z,9.78
2022-11-25T13:36:23.952Z,9.75
2022-11-25T13:38:50.564Z,9.82
2022-11-25T13:41:20.173Z,9.84
2022-11-25T13:44:11.418Z,9.85
2022-11-25T13:46:42.055Z,9.84
2022-11-25T13:49:32.997Z,9.84
2022-11-25T13:52:11.577Z,9.91
2022-11-25T13:54:48.538Z,9.92
2022-11-25T13:57:23.628Z,9.93
2022-11-25T13:59:54.425Z,9.95
2022-11-25T14:02:29.979Z,9.94
2022-11-25T14:05:13.338Z,9.96
2022-11-25T14:07:42.956Z,9.96
2022-11-25T14:10:28.874Z,9.97
2022-11-25T14:13:01.503Z,10.00
2022-11-25T14:15:37.719Z,10.00
2022-11-25T14:18:36.855Z,10.03
2022-11-25T14:21:40.906Z,9.96
2022-11-25T14:24:25.851Z,10.03
2022-11-25T14:26:54.005Z,10.05
2022-11-25T14:29:37.774Z,10.06
2022-11-25T14:32:19.738Z,10.06
2022-11-25T14:34:56.736Z,9.99
2022-11-25T14:37:41.056Z,10.03
2022-11-25T14:40:18.673Z,10.02
2022-11-25T14:42:47.777Z,10.04
2022-11-25T14:45:30.110Z,10.02
2022-11-25T14:47:57.033Z,10.03
2022-11-25T14:50:34.849Z,10.02
2022-11-25T14:53:06.701Z,10.00
2022-11-25T14:55:33.253Z,9.97
2022-11-25T14:57:59.953Z,9.96
2022-11-25T15:00:27.278Z,9.86
2022-11-25T15:03:00.134Z,9.89
2022-11-25T15:05:35.361Z,9.86
2022-11-25T15:08:15.076Z,9.83
2022-11-25T15:10:56.028Z,9.78
2022-11-25T15:13:42.924Z,9.76
2022-11-25T15:16:15.996Z,9.72
2022-11-25T15:18:53.093Z,9.68
2022-11-25T15:21:32.740Z,9.61
2022-11-25T15:23:59.718Z,9.54
2022-11-25T15:26:29.147Z,9.52
2022-11-25T15:29:11.152Z,9.52
2022-11-25T15:31:39.404Z,9.47
2022-11-25T15:34:12.811Z,9.41
2022-11-25T15:36:40.368Z,9.36
2022-11-25T15:39:27.814Z,9.39
2022-11-25T15:42:02.909Z,9.34
2022-11-25T15:44:40.772Z,9.35
2022-11-25T15:47:25.132Z,9.33
2022-11-25T15:50:07.483Z,9.26
2022-11-25T15:52:37.857Z,9.18
2022-11-25T15:55:18.310Z,9.09
2022-11-25T15:57:49.750Z,8.99
2022-11-25T16:00:23.096Z,9.00
2022-11-25T16:02:53.013Z,8.97
2022-11-25T16:05:27.546Z,8.96
2022-11-25T16:07:54.657Z,8.91
2022-11-25T16:10:23.076Z,8.89
2022-11-25T16:13:23.604Z,8.86
2022-11-25T16:15:59.725Z,8.80
2022-11-25T16:18:55.924Z,8.78
2022-11-25T16:21:48.334Z,8.77
2022-11-25T16:24:32.709Z,8.70
2022-11-25T16:27:20.937Z,8.61
2022-11-25T16:29:53.567Z,8.58
2022-11-25T16:32:23.228Z,8.49
2022-11-25T16:34:50.187Z,8.45
2022-11-25T16:37:16.837Z,8.49
2022-11-25T16:39:43.660Z,8.49
2022-11-25T16:42:18.403Z,8.45
2022-11-25T16:44:50.723Z,8.38
2022-11-25T16:47:19.117Z,8.33
2022-11-25T16:49:46.658Z,8.30
2022-11-25T16:52:14.166Z,8.25
2022-11-25T16:54:41.815Z,8.22
2022-11-25T16:57:16.265Z,8.19
2022-11-25T16:59:44.488Z,8.18
2022-11-25T17:02:20.017Z,8.25
2022-11-25T17:04:47.391Z,8.32
2022-11-25T17:07:32.251Z,8.35
2022-11-25T17:09:59.094Z,8.33
2022-11-25T17:12:30.843Z,8.39
2022-11-25T17:14:59.822Z,8.40
2022-11-25T17:17:28.151Z,8.41
2022-11-25T17:19:55.243Z,8.41
2022-11-25T17:22:25.251Z,8.46
2022-11-25T17:24:52.344Z,8.48
2022-11-25T17:27:29.302Z,8.48
2022-11-25T17:29:58.531Z,8.48
2022-11-25T17:32:25.796Z,8.41
2022-11-25T17:34:52.476Z,8.44
2022-11-25T17:37:23.025Z,8.46
2022-11-25T17:39:52.671Z,8.46
2022-11-25T17:42:23.530Z,8.47
2022-11-25T17:44:54.109Z,8.39
2022-11-25T17:47:21.013Z,8.40
2022-11-25T17:49:49.302Z,8.39
2022-11-25T17:52:16.103Z,8.38
2022-11-25T17:54:42.876Z,8.26
2022-11-25T17:57:17.461Z,8.37
2022-11-25T17:59:44.173Z,8.32
2022-11-25T18:02:22.204Z,8.36
2022-11-25T18:04:49.279Z,8.31
2022-11-25T18:07:16.588Z,8.28
2022-11-25T18:09:44.420Z,8.32
2022-11-25T18:12:25.798Z,8.30
2022-11-25T18:14:52.434Z,8.23
2022-11-25T18:17:19.304Z,8.21
2022-11-25T18:19:52.882Z,8.20
2022-11-25T18:22:21.564Z,8.16
2022-11-25T18:24:48.145Z,8.15
2022-11-25T18:27:27.461Z,8.20
2022-11-25T18:29:55.552Z,8.10
2022-11-25T18:32:23.574Z,8.16
2022-11-25T18:34:51.560Z,8.10
2022-11-25T18:37:18.134Z,8.12
2022-11-25T18:39:44.957Z,8.04
2022-11-25T18:42:31.443Z,7.97
2022-11-25T18:44:58.240Z,8.07
2022-11-25T18:47:24.789Z,8.04
2022-11-25T18:49:55.802Z,8.06
2022-11-25T18:52:24.126Z,8.05
2022-11-25T18:54:50.851Z,8.06
2022-11-25T18:57:17.654Z,8.03
2022-11-25T18:59:45.168Z,8.00
2022-11-25T19:02:16.749Z,8.06
2022-11-25T19:04:44.305Z,8.03
2022-11-25T19:07:11.160Z,7.90
2022-11-25T19:09:38.022Z,7.93
2022-11-25T19:12:05.362Z,7.91
2022-11-25T19:14:36.006Z,7.84
2022-11-25T19:17:06.460Z,7.84
2022-11-25T19:19:33.211Z,7.85
2022-11-25T19:22:01.425Z,7.85
2022-11-25T19:24:28.336Z,7.86
2022-11-25T19:26:57.227Z,7.89
2022-11-25T19:29:33.869Z,7.78
2022-11-25T19:32:04.192Z,7.83
2022-11-25T19:34:36.892Z,7.82
2022-11-25T19:37:03.660Z,7.77
2022-11-25T19:39:35.524Z,7.84
2022-11-25T19:42:02.123Z,7.80
2022-11-25T19:44:30.265Z,7.84
2022-11-25T19:47:14.778Z,7.69
2022-11-25T19:49:42.771Z,7.59
2022-11-25T19:52:19.914Z,7.62
2022-11-25T19:54:50.529Z,7.60
2022-11-25T19:57:29.644Z,7.59
2022-11-25T19:59:56.206Z,7.56
2022-11-25T20:02:31.818Z,7.44
2022-11-25T20:04:58.431Z,7.42
2022-11-25T20:07:26.348Z,7.37
2022-11-25T20:09:53.276Z,7.41
2022-11-25T20:12:22.830Z,7.45
2022-11-25T20:14:50.592Z,7.45
2022-11-25T20:17:26.428Z,7.49
2022-11-25T20:19:57.060Z,7.38
2022-11-25T20:22:31.186Z,7.32
2022-11-25T20:25:01.914Z,7.25
2022-11-25T20:27:29.154Z,7.22
2022-11-25T20:29:56.174Z,7.24
2022-11-25T20:32:31.431Z,7.24
2022-11-25T20:34:58.673Z,7.17
2022-11-25T20:37:28.083Z,7.13
2022-11-25T20:39:57.359Z,7.06
2022-11-25T20:42:24.948Z,7.03
2022-11-25T20:44:57.043Z,6.92
2022-11-25T20:47:26.371Z,6.91
2022-11-25T20:49:53.786Z,6.91
2022-11-25T20:52:26.457Z,6.93
2022-11-25T20:54:53.007Z,6.83
2022-11-25T20:57:19.567Z,6.76
2022-11-25T20:59:46.201Z,6.74
2022-11-25T21:02:12.853Z,6.62
2022-11-25T21:04:39.606Z,6.72
2022-11-25T21:07:13.305Z,6.66
2022-11-25T21:09:40.412Z,6.73
2022-11-25T21:12:18.598Z,6.72
2022-11-25T21:14:46.076Z,6.59
2022-11-25T21:17:12.565Z,6.66
2022-11-25T21:19:39.102Z,6.68
2022-11-25T21:22:05.696Z,6.60
2022-11-25T21:24:37.022Z,6.61
2022-11-25T21:27:12.642Z,6.62
2022-11-25T21:29:41.894Z,6.61
2022-11-25T21:32:20.680Z,6.50
2022-11-25T21:34:47.756Z,6.59
2022-11-25T21:37:14.691Z,6.57
2022-11-25T21:39:41.867Z,6.46
2022-11-25T21:42:18.419Z,6.53
2022-11-25T21:44:46.394Z,6.51
2022-11-25T21:47:21.508Z,6.53
2022-11-25T21:49:48.566Z,6.56
2022-11-25T21:52:15.651Z,6.56
2022-11-25T21:54:42.505Z,6.57
2022-11-25T21:57:25.974Z,6.59
2022-11-25T21:59:52.567Z,6.53
2022-11-25T22:02:22.521Z,6.54
2022-11-25T22:04:49.884Z,6.59
2022-11-25T22:07:16.682Z,6.59
2022-11-25T22:09:43.861Z,6.65
2022-11-25T22:12:26.201Z,6.66
2022-11-25T22:14:53.682Z,6.74
2022-11-25T22:17:20.358Z,6.74
2022-11-25T22:19:47.064Z,6.73
2022-11-25T22:22:15.572Z,6.70
2022-11-25T22:24:42.498Z,6.68
2022-11-25T22:27:21.563Z,6.76
2022-11-25T22:29:48.634Z,6.70
2022-11-25T22:32:16.879Z,6.79
2022-11-25T22:34:44.271Z,6.83
2022-11-25T22:37:16.878Z,6.80
2022-11-25T22:39:43.688Z,6.84
2022-11-25T22:42:17.161Z,6.78
2022-11-25T22:44:45.989Z,6.82
2022-11-25T22:47:19.093Z,6.96
2022-11-25T22:49:47.707Z,6.90
2022-11-25T22:52:29.862Z,6.92
2022-11-25T22:55:21.160Z,6.88
2022-11-25T22:57:49.269Z,6.82
2022-11-25T23:00:19.461Z,6.78
2022-11-25T23:02:47.117Z,6.87
2022-11-25T23:05:28.975Z,6.74
2022-11-25T23:07:59.505Z,6.81
2022-11-25T23:10:31.779Z,6.83
2022-11-25T23:12:58.369Z,6.75
2022-11-25T23:15:25.305Z,6.82
2022-11-25T23:17:55.506Z,6.60
2022-11-25T23:20:27.450Z,6.82
2022-11-25T23:22:54.105Z,6.82
2022-11-25T23:25:23.013Z,6.61
2022-11-25T23:27:50.001Z,6.72
2022-11-25T23:30:20.078Z,6.79
2022-11-25T23:32:49.644Z,6.77
2022-11-25T23:35:18.859Z,6.79
2022-11-25T23:37:53.100Z,6.67
2022-11-25T23:40:21.714Z,6.80
2022-11-25T23:42:49.165Z,6.67
2022-11-25T23:45:21.123Z,6.78
2022-11-25T23:47:50.779Z,6.66
2022-11-25T23:50:37.590Z,6.73
2022-11-25T23:53:12.919Z,6.78
2022-11-25T23:55:39.641Z,6.76
2022-11-25T23:58:17.798Z,6.79
